sensor_id;sensor_type;location;lat;lon;timestamp;P1;durP1;ratioP1;P2;durP2;ratioP2
25091;SDS011;13082;52.374;4.946;2022-10-26T00:00:23;8.83;;;5.10;;
25091;SDS011;13082;52.374;4.946;2022-10-26T00:02:52;10.20;;;4.87;;
25091;SDS011;13082;52.374;4.946;2022-10-26T00:08:41;10.60;;;4.83;;
25091;SDS011;13082;52.374;4.946;2022-10-26T00:11:07;8.33;;;4.93;;
25091;SDS011;13082;52.374;4.946;2022-10-26T00:13:34;5.97;;;4.87;;
25091;SDS011;13082;52.374;4.946;2022-10-26T00:16:01;11.53;;;5.17;;
25091;SDS011;13082;52.374;4.946;2022-10-26T00:18:31;7.63;;;4.27;;
25091;SDS011;13082;52.374;4.946;2022-10-26T00:21:01;7.67;;;4.47;;
25091;SDS011;13082;52.374;4.946;2022-10-26T00:23:30;5.77;;;4.93;;
25091;SDS011;13082;52.374;4.946;2022-10-26T00:25:56;5.97;;;4.37;;
25091;SDS011;13082;52.374;4.946;2022-10-26T00:28:22;7.13;;;5.13;;
25091;SDS011;13082;52.374;4.946;2022-10-26T00:30:48;6.50;;;5.00;;
25091;SDS011;13082;52.374;4.946;2022-10-26T00:33:14;8.40;;;5.00;;
25091;SDS011;13082;52.374;4.946;2022-10-26T00:35:40;5.37;;;4.87;;
25091;SDS011;13082;52.374;4.946;2022-10-26T00:38:06;9.93;;;5.43;;
25091;SDS011;13082;52.374;4.946;2022-10-26T00:40:32;7.20;;;4.93;;
25091;SDS011;13082;52.374;4.946;2022-10-26T00:42:57;8.50;;;5.03;;
25091;SDS011;13082;52.374;4.946;2022-10-26T00:45:27;8.87;;;4.43;;
25091;SDS011;13082;52.374;4.946;2022-10-26T00:48:03;6.33;;;5.10;;
25091;SDS011;13082;52.374;4.946;2022-10-26T00:50:35;9.37;;;5.53;;
25091;SDS011;13082;52.374;4.946;2022-10-26T00:53:05;7.30;;;4.53;;
25091;SDS011;13082;52.374;4.946;2022-10-26T00:55:33;7.13;;;4.87;;
25091;SDS011;13082;52.374;4.946;2022-10-26T00:58:02;9.47;;;4.43;;
25091;SDS011;13082;52.374;4.946;2022-10-26T01:00:30;7.30;;;4.47;;
25091;SDS011;13082;52.374;4.946;2022-10-26T01:02:57;9.13;;;5.13;;
25091;SDS011;13082;52.374;4.946;2022-10-26T01:05:26;9.90;;;5.17;;
25091;SDS011;13082;52.374;4.946;2022-10-26T01:07:53;8.77;;;4.33;;
25091;SDS011;13082;52.374;4.946;2022-10-26T01:10:19;7.57;;;5.30;;
25091;SDS011;13082;52.374;4.946;2022-10-26T01:12:45;9.57;;;4.27;;
25091;SDS011;13082;52.374;4.946;2022-10-26T01:15:11;7.33;;;4.27;;
25091;SDS011;13082;52.374;4.946;2022-10-26T01:20:50;7.30;;;4.87;;
25091;SDS011;13082;52.374;4.946;2022-10-26T01:26:17;11.37;;;4.03;;
25091;SDS011;13082;52.374;4.946;2022-10-26T01:31:37;5.17;;;3.70;;
25091;SDS011;13082;52.374;4.946;2022-10-26T01:34:24;6.87;;;4.23;;
25091;SDS011;13082;52.374;4.946;2022-10-26T01:37:09;9.10;;;4.10;;
25091;SDS011;13082;52.374;4.946;2022-10-26T01:39:46;9.83;;;4.60;;
25091;SDS011;13082;52.374;4.946;2022-10-26T01:42:15;11.03;;;4.00;;
25091;SDS011;13082;52.374;4.946;2022-10-26T01:44:47;8.70;;;4.57;;
25091;SDS011;13082;52.374;4.946;2022-10-26T01:47:17;6.20;;;3.67;;
25091;SDS011;13082;52.374;4.946;2022-10-26T01:49:46;7.67;;;3.60;;
25091;SDS011;13082;52.374;4.946;2022-10-26T01:52:16;8.03;;;3.97;;
25091;SDS011;13082;52.374;4.946;2022-10-26T01:54:42;7.37;;;3.60;;
25091;SDS011;13082;52.374;4.946;2022-10-26T01:57:08;9.17;;;3.80;;
25091;SDS011;13082;52.374;4.946;2022-10-26T01:59:57;6.27;;;3.70;;
25091;SDS011;13082;52.374;4.946;2022-10-26T02:02:46;5.77;;;3.63;;
25091;SDS011;13082;52.374;4.946;2022-10-26T02:05:44;6.90;;;4.13;;
25091;SDS011;13082;52.374;4.946;2022-10-26T02:08:40;5.73;;;3.67;;
25091;SDS011;13082;52.374;4.946;2022-10-26T02:11:31;3.23;;;2.93;;
25091;SDS011;13082;52.374;4.946;2022-10-26T02:16:50;5.53;;;3.40;;
25091;SDS011;13082;52.374;4.946;2022-10-26T02:19:39;7.63;;;3.50;;
25091;SDS011;13082;52.374;4.946;2022-10-26T02:22:19;6.67;;;3.43;;
25091;SDS011;13082;52.374;4.946;2022-10-26T02:24:50;5.83;;;3.60;;
25091;SDS011;13082;52.374;4.946;2022-10-26T02:27:19;5.10;;;3.47;;
25091;SDS011;13082;52.374;4.946;2022-10-26T02:29:49;8.33;;;4.13;;
25091;SDS011;13082;52.374;4.946;2022-10-26T02:32:17;6.43;;;4.30;;
25091;SDS011;13082;52.374;4.946;2022-10-26T02:34:45;11.60;;;4.43;;
25091;SDS011;13082;52.374;4.946;2022-10-26T02:37:14;6.23;;;4.23;;
25091;SDS011;13082;52.374;4.946;2022-10-26T02:39:43;4.63;;;3.83;;
25091;SDS011;13082;52.374;4.946;2022-10-26T02:42:12;6.77;;;4.10;;
25091;SDS011;13082;52.374;4.946;2022-10-26T02:44:47;5.87;;;4.13;;
25091;SDS011;13082;52.374;4.946;2022-10-26T02:47:21;4.47;;;3.67;;
25091;SDS011;13082;52.374;4.946;2022-10-26T02:49:48;5.70;;;4.17;;
25091;SDS011;13082;52.374;4.946;2022-10-26T02:52:16;9.70;;;4.80;;
25091;SDS011;13082;52.374;4.946;2022-10-26T02:57:32;6.20;;;4.03;;
25091;SDS011;13082;52.374;4.946;2022-10-26T03:00:04;6.13;;;4.43;;
25091;SDS011;13082;52.374;4.946;2022-10-26T03:02:31;7.93;;;4.13;;
25091;SDS011;13082;52.374;4.946;2022-10-26T03:04:59;7.20;;;5.23;;
25091;SDS011;13082;52.374;4.946;2022-10-26T03:07:41;9.33;;;4.80;;
25091;SDS011;13082;52.374;4.946;2022-10-26T03:10:07;9.77;;;4.60;;
25091;SDS011;13082;52.374;4.946;2022-10-26T03:12:33;7.17;;;4.37;;
25091;SDS011;13082;52.374;4.946;2022-10-26T03:14:59;8.00;;;4.83;;
25091;SDS011;13082;52.374;4.946;2022-10-26T03:17:24;7.33;;;4.67;;
25091;SDS011;13082;52.374;4.946;2022-10-26T03:19:50;6.57;;;4.77;;
25091;SDS011;13082;52.374;4.946;2022-10-26T03:22:15;6.73;;;4.37;;
25091;SDS011;13082;52.374;4.946;2022-10-26T03:24:41;7.87;;;4.13;;
25091;SDS011;13082;52.374;4.946;2022-10-26T03:27:07;7.50;;;4.80;;
25091;SDS011;13082;52.374;4.946;2022-10-26T03:29:32;12.80;;;5.27;;
25091;SDS011;13082;52.374;4.946;2022-10-26T03:31:58;8.27;;;4.40;;
25091;SDS011;13082;52.374;4.946;2022-10-26T03:34:23;7.67;;;4.43;;
25091;SDS011;13082;52.374;4.946;2022-10-26T03:36:49;7.30;;;5.00;;
25091;SDS011;13082;52.374;4.946;2022-10-26T03:39:14;6.27;;;4.43;;
25091;SDS011;13082;52.374;4.946;2022-10-26T03:41:40;5.83;;;4.37;;
25091;SDS011;13082;52.374;4.946;2022-10-26T03:44:06;11.40;;;4.70;;
25091;SDS011;13082;52.374;4.946;2022-10-26T03:46:32;5.87;;;4.20;;
25091;SDS011;13082;52.374;4.946;2022-10-26T03:48:57;10.33;;;4.37;;
25091;SDS011;13082;52.374;4.946;2022-10-26T03:51:23;7.10;;;4.27;;
25091;SDS011;13082;52.374;4.946;2022-10-26T03:53:48;9.43;;;4.70;;
25091;SDS011;13082;52.374;4.946;2022-10-26T03:56:14;6.13;;;4.53;;
25091;SDS011;13082;52.374;4.946;2022-10-26T03:58:39;6.77;;;3.63;;
25091;SDS011;13082;52.374;4.946;2022-10-26T04:01:05;11.83;;;4.23;;
25091;SDS011;13082;52.374;4.946;2022-10-26T04:03:30;4.70;;;3.80;;
25091;SDS011;13082;52.374;4.946;2022-10-26T04:05:59;11.27;;;3.73;;
25091;SDS011;13082;52.374;4.946;2022-10-26T04:08:25;4.77;;;3.37;;
25091;SDS011;13082;52.374;4.946;2022-10-26T04:10:51;4.70;;;3.60;;
25091;SDS011;13082;52.374;4.946;2022-10-26T04:13:16;8.93;;;3.60;;
25091;SDS011;13082;52.374;4.946;2022-10-26T04:15:42;6.00;;;3.63;;
25091;SDS011;13082;52.374;4.946;2022-10-26T04:18:07;6.73;;;3.50;;
25091;SDS011;13082;52.374;4.946;2022-10-26T04:20:33;8.83;;;3.60;;
25091;SDS011;13082;52.374;4.946;2022-10-26T04:23:04;5.10;;;3.10;;
25091;SDS011;13082;52.374;4.946;2022-10-26T04:25:31;4.80;;;3.13;;
25091;SDS011;13082;52.374;4.946;2022-10-26T04:27:57;5.60;;;3.10;;
25091;SDS011;13082;52.374;4.946;2022-10-26T04:30:23;4.10;;;2.50;;
25091;SDS011;13082;52.374;4.946;2022-10-26T04:32:49;6.87;;;2.60;;
25091;SDS011;13082;52.374;4.946;2022-10-26T04:35:15;4.43;;;2.73;;
25091;SDS011;13082;52.374;4.946;2022-10-26T04:37:40;4.43;;;2.60;;
25091;SDS011;13082;52.374;4.946;2022-10-26T04:40:06;5.60;;;2.70;;
25091;SDS011;13082;52.374;4.946;2022-10-26T04:42:39;3.97;;;2.63;;
25091;SDS011;13082;52.374;4.946;2022-10-26T04:45:08;6.37;;;2.70;;
25091;SDS011;13082;52.374;4.946;2022-10-26T04:47:35;8.17;;;2.93;;
25091;SDS011;13082;52.374;4.946;2022-10-26T04:50:01;7.27;;;2.57;;
25091;SDS011;13082;52.374;4.946;2022-10-26T04:52:27;7.07;;;2.53;;
25091;SDS011;13082;52.374;4.946;2022-10-26T04:54:52;3.43;;;2.23;;
25091;SDS011;13082;52.374;4.946;2022-10-26T04:57:18;5.67;;;2.40;;
25091;SDS011;13082;52.374;4.946;2022-10-26T04:59:43;4.13;;;2.20;;
25091;SDS011;13082;52.374;4.946;2022-10-26T05:02:09;7.97;;;2.93;;
25091;SDS011;13082;52.374;4.946;2022-10-26T05:04:34;3.57;;;2.50;;
25091;SDS011;13082;52.374;4.946;2022-10-26T05:07:00;5.50;;;2.60;;
25091;SDS011;13082;52.374;4.946;2022-10-26T05:09:25;2.80;;;2.40;;
25091;SDS011;13082;52.374;4.946;2022-10-26T05:11:51;9.40;;;2.60;;
25091;SDS011;13082;52.374;4.946;2022-10-26T05:14:17;4.07;;;2.20;;
25091;SDS011;13082;52.374;4.946;2022-10-26T05:16:42;6.27;;;2.33;;
25091;SDS011;13082;52.374;4.946;2022-10-26T05:19:08;3.60;;;2.23;;
25091;SDS011;13082;52.374;4.946;2022-10-26T05:21:36;2.33;;;2.13;;
25091;SDS011;13082;52.374;4.946;2022-10-26T05:24:01;5.03;;;2.53;;
25091;SDS011;13082;52.374;4.946;2022-10-26T05:26:27;3.40;;;2.23;;
25091;SDS011;13082;52.374;4.946;2022-10-26T05:28:53;5.50;;;2.40;;
25091;SDS011;13082;52.374;4.946;2022-10-26T05:31:19;5.90;;;2.60;;
25091;SDS011;13082;52.374;4.946;2022-10-26T05:33:48;2.93;;;2.17;;
25091;SDS011;13082;52.374;4.946;2022-10-26T05:36:15;5.40;;;2.00;;
25091;SDS011;13082;52.374;4.946;2022-10-26T05:38:41;4.00;;;2.07;;
25091;SDS011;13082;52.374;4.946;2022-10-26T05:41:07;3.13;;;2.27;;
25091;SDS011;13082;52.374;4.946;2022-10-26T05:43:32;4.80;;;2.07;;
25091;SDS011;13082;52.374;4.946;2022-10-26T05:45:58;5.97;;;1.93;;
25091;SDS011;13082;52.374;4.946;2022-10-26T05:48:24;4.43;;;2.27;;
25091;SDS011;13082;52.374;4.946;2022-10-26T05:50:49;4.50;;;2.07;;
25091;SDS011;13082;52.374;4.946;2022-10-26T05:53:15;4.03;;;2.47;;
25091;SDS011;13082;52.374;4.946;2022-10-26T05:55:41;2.80;;;2.43;;
25091;SDS011;13082;52.374;4.946;2022-10-26T05:58:11;2.47;;;2.27;;
25091;SDS011;13082;52.374;4.946;2022-10-26T06:00:48;3.97;;;2.20;;
25091;SDS011;13082;52.374;4.946;2022-10-26T06:03:33;4.33;;;2.10;;
25091;SDS011;13082;52.374;4.946;2022-10-26T06:06:02;4.57;;;2.00;;
25091;SDS011;13082;52.374;4.946;2022-10-26T06:08:28;6.67;;;2.47;;
25091;SDS011;13082;52.374;4.946;2022-10-26T06:10:55;2.50;;;2.17;;
25091;SDS011;13082;52.374;4.946;2022-10-26T06:13:23;3.07;;;2.10;;
25091;SDS011;13082;52.374;4.946;2022-10-26T06:15:59;4.70;;;2.43;;
25091;SDS011;13082;52.374;4.946;2022-10-26T06:24:01;3.00;;;2.27;;
25091;SDS011;13082;52.374;4.946;2022-10-26T06:32:21;7.90;;;2.60;;
25091;SDS011;13082;52.374;4.946;2022-10-26T06:34:49;4.93;;;2.83;;
25091;SDS011;13082;52.374;4.946;2022-10-26T06:37:23;4.27;;;2.80;;
25091;SDS011;13082;52.374;4.946;2022-10-26T06:39:50;4.80;;;3.10;;
25091;SDS011;13082;52.374;4.946;2022-10-26T06:42:16;5.27;;;2.43;;
25091;SDS011;13082;52.374;4.946;2022-10-26T06:44:42;3.87;;;3.17;;
25091;SDS011;13082;52.374;4.946;2022-10-26T06:47:13;8.03;;;2.97;;
25091;SDS011;13082;52.374;4.946;2022-10-26T06:55:04;4.23;;;2.97;;
25091;SDS011;13082;52.374;4.946;2022-10-26T06:57:36;4.97;;;2.50;;
25091;SDS011;13082;52.374;4.946;2022-10-26T07:02:41;2.83;;;2.40;;
25091;SDS011;13082;52.374;4.946;2022-10-26T07:05:07;3.37;;;2.70;;
25091;SDS011;13082;52.374;4.946;2022-10-26T07:07:36;4.30;;;2.90;;
25091;SDS011;13082;52.374;4.946;2022-10-26T07:10:06;5.73;;;2.67;;
25091;SDS011;13082;52.374;4.946;2022-10-26T07:12:32;6.00;;;2.97;;
25091;SDS011;13082;52.374;4.946;2022-10-26T07:14:58;6.23;;;3.50;;
25091;SDS011;13082;52.374;4.946;2022-10-26T07:17:24;4.93;;;2.83;;
25091;SDS011;13082;52.374;4.946;2022-10-26T07:19:52;5.83;;;3.10;;
25091;SDS011;13082;52.374;4.946;2022-10-26T07:22:18;7.13;;;3.67;;
25091;SDS011;13082;52.374;4.946;2022-10-26T07:24:44;7.37;;;2.60;;
25091;SDS011;13082;52.374;4.946;2022-10-26T07:27:09;5.13;;;2.90;;
25091;SDS011;13082;52.374;4.946;2022-10-26T07:29:35;5.60;;;3.00;;
25091;SDS011;13082;52.374;4.946;2022-10-26T07:32:01;3.63;;;2.50;;
25091;SDS011;13082;52.374;4.946;2022-10-26T07:34:26;4.83;;;3.27;;
25091;SDS011;13082;52.374;4.946;2022-10-26T07:36:52;4.93;;;2.93;;
25091;SDS011;13082;52.374;4.946;2022-10-26T07:39:18;7.30;;;3.23;;
25091;SDS011;13082;52.374;4.946;2022-10-26T07:41:44;8.10;;;2.73;;
25091;SDS011;13082;52.374;4.946;2022-10-26T07:44:10;7.50;;;3.23;;
25091;SDS011;13082;52.374;4.946;2022-10-26T07:46:35;5.67;;;3.33;;
25091;SDS011;13082;52.374;4.946;2022-10-26T07:49:01;3.50;;;2.60;;
25091;SDS011;13082;52.374;4.946;2022-10-26T07:51:26;5.87;;;2.80;;
25091;SDS011;13082;52.374;4.946;2022-10-26T07:53:52;5.30;;;2.83;;
25091;SDS011;13082;52.374;4.946;2022-10-26T07:56:18;4.57;;;3.10;;
25091;SDS011;13082;52.374;4.946;2022-10-26T07:58:43;4.93;;;3.17;;
25091;SDS011;13082;52.374;4.946;2022-10-26T08:01:10;4.17;;;3.20;;
25091;SDS011;13082;52.374;4.946;2022-10-26T08:03:37;7.17;;;3.20;;
25091;SDS011;13082;52.374;4.946;2022-10-26T08:06:03;6.07;;;3.23;;
25091;SDS011;13082;52.374;4.946;2022-10-26T08:08:29;4.23;;;3.00;;
25091;SDS011;13082;52.374;4.946;2022-10-26T08:10:56;6.17;;;3.40;;
25091;SDS011;13082;52.374;4.946;2022-10-26T08:13:22;4.73;;;2.90;;
25091;SDS011;13082;52.374;4.946;2022-10-26T08:15:48;3.07;;;2.57;;
25091;SDS011;13082;52.374;4.946;2022-10-26T08:18:13;4.70;;;3.00;;
25091;SDS011;13082;52.374;4.946;2022-10-26T08:20:39;5.30;;;2.60;;
25091;SDS011;13082;52.374;4.946;2022-10-26T08:23:05;3.03;;;2.63;;
25091;SDS011;13082;52.374;4.946;2022-10-26T08:25:32;3.50;;;2.50;;
25091;SDS011;13082;52.374;4.946;2022-10-26T08:28:01;4.00;;;2.40;;
25091;SDS011;13082;52.374;4.946;2022-10-26T08:30:27;5.17;;;3.03;;
25091;SDS011;13082;52.374;4.946;2022-10-26T08:32:57;2.33;;;2.03;;
25091;SDS011;13082;52.374;4.946;2022-10-26T08:35:24;6.70;;;2.30;;
25091;SDS011;13082;52.374;4.946;2022-10-26T08:37:50;4.67;;;2.50;;
25091;SDS011;13082;52.374;4.946;2022-10-26T08:40:16;3.63;;;2.30;;
25091;SDS011;13082;52.374;4.946;2022-10-26T08:42:47;5.57;;;2.67;;
25091;SDS011;13082;52.374;4.946;2022-10-26T08:45:22;4.80;;;2.73;;
25091;SDS011;13082;52.374;4.946;2022-10-26T08:47:53;8.50;;;3.00;;
25091;SDS011;13082;52.374;4.946;2022-10-26T08:50:26;2.37;;;2.17;;
25091;SDS011;13082;52.374;4.946;2022-10-26T08:55:56;5.03;;;2.53;;
25091;SDS011;13082;52.374;4.946;2022-10-26T08:58:30;5.13;;;2.50;;
25091;SDS011;13082;52.374;4.946;2022-10-26T09:01:01;4.90;;;2.70;;
25091;SDS011;13082;52.374;4.946;2022-10-26T09:03:29;4.37;;;2.50;;
25091;SDS011;13082;52.374;4.946;2022-10-26T09:11:11;6.13;;;3.00;;
25091;SDS011;13082;52.374;4.946;2022-10-26T09:16:26;5.77;;;2.73;;
25091;SDS011;13082;52.374;4.946;2022-10-26T09:22:06;3.87;;;2.17;;
25091;SDS011;13082;52.374;4.946;2022-10-26T09:24:33;3.20;;;2.60;;
25091;SDS011;13082;52.374;4.946;2022-10-26T09:29:50;3.93;;;2.93;;
25091;SDS011;13082;52.374;4.946;2022-10-26T09:32:18;2.80;;;2.47;;
25091;SDS011;13082;52.374;4.946;2022-10-26T09:34:47;3.50;;;3.03;;
25091;SDS011;13082;52.374;4.946;2022-10-26T09:45:24;6.17;;;3.33;;
25091;SDS011;13082;52.374;4.946;2022-10-26T09:48:03;11.50;;;3.07;;
25091;SDS011;13082;52.374;4.946;2022-10-26T09:50:35;4.37;;;2.70;;
25091;SDS011;13082;52.374;4.946;2022-10-26T09:53:02;5.50;;;3.10;;
25091;SDS011;13082;52.374;4.946;2022-10-26T09:55:29;5.17;;;2.90;;
25091;SDS011;13082;52.374;4.946;2022-10-26T09:57:57;4.03;;;2.90;;
25091;SDS011;13082;52.374;4.946;2022-10-26T10:00:26;5.13;;;3.40;;
25091;SDS011;13082;52.374;4.946;2022-10-26T10:02:53;2.93;;;2.67;;
25091;SDS011;13082;52.374;4.946;2022-10-26T10:07:56;5.53;;;3.10;;
25091;SDS011;13082;52.374;4.946;2022-10-26T10:10:53;5.30;;;3.03;;
25091;SDS011;13082;52.374;4.946;2022-10-26T10:13:25;4.13;;;2.70;;
25091;SDS011;13082;52.374;4.946;2022-10-26T10:16:35;3.77;;;3.20;;
25091;SDS011;13082;52.374;4.946;2022-10-26T10:18:55;4.17;;;2.87;;
25091;SDS011;13082;52.374;4.946;2022-10-26T10:21:32;3.87;;;3.17;;
25091;SDS011;13082;52.374;4.946;2022-10-26T10:26:54;5.07;;;3.10;;
25091;SDS011;13082;52.374;4.946;2022-10-26T10:29:24;3.07;;;2.73;;
25091;SDS011;13082;52.374;4.946;2022-10-26T10:31:57;6.67;;;3.03;;
25091;SDS011;13082;52.374;4.946;2022-10-26T10:34:30;16.20;;;3.60;;
25091;SDS011;13082;52.374;4.946;2022-10-26T10:36:57;7.70;;;2.80;;
25091;SDS011;13082;52.374;4.946;2022-10-26T10:42:04;6.63;;;2.90;;
25091;SDS011;13082;52.374;4.946;2022-10-26T10:44:38;9.20;;;3.43;;
25091;SDS011;13082;52.374;4.946;2022-10-26T10:47:04;9.17;;;3.77;;
25091;SDS011;13082;52.374;4.946;2022-10-26T10:49:31;5.40;;;3.20;;
25091;SDS011;13082;52.374;4.946;2022-10-26T10:51:58;8.73;;;3.30;;
25091;SDS011;13082;52.374;4.946;2022-10-26T10:54:31;8.07;;;3.50;;
25091;SDS011;13082;52.374;4.946;2022-10-26T10:57:02;6.43;;;2.90;;
25091;SDS011;13082;52.374;4.946;2022-10-26T11:08:01;3.90;;;2.37;;
25091;SDS011;13082;52.374;4.946;2022-10-26T11:10:29;4.73;;;2.63;;
25091;SDS011;13082;52.374;4.946;2022-10-26T11:13:04;8.37;;;2.63;;
25091;SDS011;13082;52.374;4.946;2022-10-26T11:15:37;6.93;;;2.70;;
25091;SDS011;13082;52.374;4.946;2022-10-26T11:18:06;6.67;;;2.43;;
25091;SDS011;13082;52.374;4.946;2022-10-26T11:20:37;5.93;;;3.23;;
25091;SDS011;13082;52.374;4.946;2022-10-26T11:23:11;4.27;;;2.63;;
25091;SDS011;13082;52.374;4.946;2022-10-26T11:31:12;4.47;;;2.40;;
25091;SDS011;13082;52.374;4.946;2022-10-26T11:33:44;6.93;;;2.50;;
25091;SDS011;13082;52.374;4.946;2022-10-26T11:36:23;3.97;;;2.37;;
25091;SDS011;13082;52.374;4.946;2022-10-26T11:38:56;4.60;;;2.70;;
25091;SDS011;13082;52.374;4.946;2022-10-26T11:41:48;10.97;;;2.77;;
25091;SDS011;13082;52.374;4.946;2022-10-26T11:47:00;5.13;;;2.90;;
25091;SDS011;13082;52.374;4.946;2022-10-26T11:49:56;6.03;;;2.97;;
25091;SDS011;13082;52.374;4.946;2022-10-26T11:52:29;6.13;;;2.20;;
25091;SDS011;13082;52.374;4.946;2022-10-26T11:55:03;6.63;;;2.30;;
25091;SDS011;13082;52.374;4.946;2022-10-26T11:57:32;4.60;;;2.20;;
25091;SDS011;13082;52.374;4.946;2022-10-26T12:00:16;4.13;;;2.43;;
25091;SDS011;13082;52.374;4.946;2022-10-26T12:07:56;2.80;;;2.53;;
25091;SDS011;13082;52.374;4.946;2022-10-26T12:10:26;5.07;;;2.53;;
25091;SDS011;13082;52.374;4.946;2022-10-26T12:15:43;3.07;;;2.10;;
25091;SDS011;13082;52.374;4.946;2022-10-26T12:21:02;3.33;;;2.75;;
25091;SDS011;13082;52.374;4.946;2022-10-26T12:23:32;5.25;;;2.00;;
25091;SDS011;13082;52.374;4.946;2022-10-26T12:28:47;2.83;;;2.13;;
25091;SDS011;13082;52.374;4.946;2022-10-26T12:34:03;4.33;;;2.50;;
25091;SDS011;13082;52.374;4.946;2022-10-26T12:44:31;6.47;;;3.27;;
25091;SDS011;13082;52.374;4.946;2022-10-26T12:46:59;7.00;;;2.85;;
25091;SDS011;13082;52.374;4.946;2022-10-26T12:58:08;3.47;;;2.13;;
25091;SDS011;13082;52.374;4.946;2022-10-26T13:00:50;3.15;;;2.10;;
25091;SDS011;13082;52.374;4.946;2022-10-26T13:06:06;7.88;;;2.42;;
25091;SDS011;13082;52.374;4.946;2022-10-26T13:08:44;6.47;;;2.40;;
25091;SDS011;13082;52.374;4.946;2022-10-26T13:11:12;7.15;;;2.38;;
25091;SDS011;13082;52.374;4.946;2022-10-26T13:13:54;4.40;;;2.42;;
25091;SDS011;13082;52.374;4.946;2022-10-26T13:16:27;5.45;;;2.00;;
25091;SDS011;13082;52.374;4.946;2022-10-26T13:18:54;5.53;;;2.80;;
25091;SDS011;13082;52.374;4.946;2022-10-26T13:21:21;4.70;;;2.05;;
25091;SDS011;13082;52.374;4.946;2022-10-26T13:26:29;5.33;;;2.30;;
25091;SDS011;13082;52.374;4.946;2022-10-26T13:33:59;8.80;;;2.30;;
25091;SDS011;13082;52.374;4.946;2022-10-26T13:36:39;4.50;;;2.30;;
25091;SDS011;13082;52.374;4.946;2022-10-26T13:39:22;3.35;;;2.20;;
25091;SDS011;13082;52.374;4.946;2022-10-26T13:41:51;3.40;;;1.90;;
25091;SDS011;13082;52.374;4.946;2022-10-26T13:44:26;4.60;;;2.05;;
25091;SDS011;13082;52.374;4.946;2022-10-26T13:46:58;4.22;;;2.10;;
25091;SDS011;13082;52.374;4.946;2022-10-26T13:49:44;4.47;;;2.33;;
25091;SDS011;13082;52.374;4.946;2022-10-26T13:52:15;6.50;;;2.28;;
25091;SDS011;13082;52.374;4.946;2022-10-26T13:55:00;3.70;;;2.45;;
25091;SDS011;13082;52.374;4.946;2022-10-26T13:57:42;7.05;;;2.20;;
25091;SDS011;13082;52.374;4.946;2022-10-26T14:00:21;5.65;;;2.28;;
25091;SDS011;13082;52.374;4.946;2022-10-26T14:02:47;5.30;;;2.35;;
25091;SDS011;13082;52.374;4.946;2022-10-26T14:05:14;2.80;;;2.00;;
25091;SDS011;13082;52.374;4.946;2022-10-26T14:07:49;16.23;;;2.33;;
25091;SDS011;13082;52.374;4.946;2022-10-26T14:10:32;4.97;;;2.10;;
25091;SDS011;13082;52.374;4.946;2022-10-26T14:13:05;2.17;;;1.40;;
25091;SDS011;13082;52.374;4.946;2022-10-26T14:15:32;4.47;;;2.07;;
25091;SDS011;13082;52.374;4.946;2022-10-26T14:18:00;4.43;;;1.70;;
25091;SDS011;13082;52.374;4.946;2022-10-26T14:20:28;3.38;;;1.60;;
25091;SDS011;13082;52.374;4.946;2022-10-26T14:22:55;5.32;;;2.05;;
25091;SDS011;13082;52.374;4.946;2022-10-26T14:25:22;3.65;;;1.90;;
25091;SDS011;13082;52.374;4.946;2022-10-26T14:27:53;2.72;;;1.90;;
25091;SDS011;13082;52.374;4.946;2022-10-26T14:30:29;4.80;;;1.90;;
25091;SDS011;13082;52.374;4.946;2022-10-26T14:32:56;5.13;;;2.08;;
25091;SDS011;13082;52.374;4.946;2022-10-26T14:35:32;5.70;;;1.90;;
25091;SDS011;13082;52.374;4.946;2022-10-26T14:38:02;2.37;;;1.40;;
25091;SDS011;13082;52.374;4.946;2022-10-26T14:40:34;2.30;;;1.75;;
25091;SDS011;13082;52.374;4.946;2022-10-26T14:43:01;2.80;;;1.70;;
25091;SDS011;13082;52.374;4.946;2022-10-26T14:45:29;5.05;;;2.05;;
25091;SDS011;13082;52.374;4.946;2022-10-26T14:47:56;6.45;;;1.60;;
25091;SDS011;13082;52.374;4.946;2022-10-26T14:50:23;2.17;;;1.95;;
25091;SDS011;13082;52.374;4.946;2022-10-26T14:52:57;2.88;;;1.77;;
25091;SDS011;13082;52.374;4.946;2022-10-26T14:55:26;3.10;;;1.70;;
25091;SDS011;13082;52.374;4.946;2022-10-26T14:57:53;14.30;;;2.23;;
25091;SDS011;13082;52.374;4.946;2022-10-26T15:00:39;2.70;;;1.60;;
25091;SDS011;13082;52.374;4.946;2022-10-26T15:03:06;2.37;;;1.47;;
25091;SDS011;13082;52.374;4.946;2022-10-26T15:05:38;5.43;;;2.10;;
25091;SDS011;13082;52.374;4.946;2022-10-26T15:08:03;3.10;;;2.00;;
25091;SDS011;13082;52.374;4.946;2022-10-26T15:11:07;3.53;;;2.43;;
25091;SDS011;13082;52.374;4.946;2022-10-26T15:13:33;11.73;;;2.10;;
25091;SDS011;13082;52.374;4.946;2022-10-26T15:16:09;6.23;;;2.10;;
25091;SDS011;13082;52.374;4.946;2022-10-26T15:18:41;6.70;;;2.10;;
25091;SDS011;13082;52.374;4.946;2022-10-26T15:23:49;2.38;;;1.70;;
25091;SDS011;13082;52.374;4.946;2022-10-26T15:26:15;7.83;;;2.27;;
25091;SDS011;13082;52.374;4.946;2022-10-26T15:28:41;1.87;;;1.70;;
25091;SDS011;13082;52.374;4.946;2022-10-26T15:33:36;4.80;;;1.73;;
25091;SDS011;13082;52.374;4.946;2022-10-26T15:38:32;5.77;;;2.13;;
25091;SDS011;13082;52.374;4.946;2022-10-26T15:40:58;6.93;;;2.63;;
25091;SDS011;13082;52.374;4.946;2022-10-26T15:43:24;5.03;;;2.53;;
25091;SDS011;13082;52.374;4.946;2022-10-26T15:45:50;5.67;;;2.60;;
25091;SDS011;13082;52.374;4.946;2022-10-26T15:48:24;5.78;;;2.33;;
25091;SDS011;13082;52.374;4.946;2022-10-26T15:50:53;4.53;;;2.07;;
25091;SDS011;13082;52.374;4.946;2022-10-26T15:53:20;4.73;;;2.10;;
25091;SDS011;13082;52.374;4.946;2022-10-26T15:55:47;7.43;;;2.30;;
25091;SDS011;13082;52.374;4.946;2022-10-26T15:58:15;7.63;;;2.03;;
25091;SDS011;13082;52.374;4.946;2022-10-26T16:00:41;4.90;;;1.90;;
25091;SDS011;13082;52.374;4.946;2022-10-26T16:03:28;6.13;;;2.47;;
25091;SDS011;13082;52.374;4.946;2022-10-26T16:05:56;8.00;;;2.30;;
25091;SDS011;13082;52.374;4.946;2022-10-26T16:08:25;5.07;;;2.37;;
25091;SDS011;13082;52.374;4.946;2022-10-26T16:10:53;6.20;;;2.43;;
25091;SDS011;13082;52.374;4.946;2022-10-26T16:13:18;3.23;;;1.80;;
25091;SDS011;13082;52.374;4.946;2022-10-26T16:15:44;8.80;;;2.27;;
25091;SDS011;13082;52.374;4.946;2022-10-26T16:18:10;7.70;;;1.80;;
25091;SDS011;13082;52.374;4.946;2022-10-26T16:20:35;6.33;;;2.07;;
25091;SDS011;13082;52.374;4.946;2022-10-26T16:23:01;3.37;;;1.83;;
25091;SDS011;13082;52.374;4.946;2022-10-26T16:25:31;2.63;;;1.97;;
25091;SDS011;13082;52.374;4.946;2022-10-26T16:27:59;2.43;;;2.20;;
25091;SDS011;13082;52.374;4.946;2022-10-26T16:30:27;3.10;;;2.10;;
25091;SDS011;13082;52.374;4.946;2022-10-26T16:32:54;5.67;;;2.00;;
25091;SDS011;13082;52.374;4.946;2022-10-26T16:35:20;6.00;;;2.93;;
25091;SDS011;13082;52.374;4.946;2022-10-26T16:37:45;6.80;;;1.90;;
25091;SDS011;13082;52.374;4.946;2022-10-26T16:40:11;4.20;;;2.53;;
25091;SDS011;13082;52.374;4.946;2022-10-26T16:42:37;9.00;;;3.20;;
25091;SDS011;13082;52.374;4.946;2022-10-26T16:45:07;7.35;;;2.80;;
25091;SDS011;13082;52.374;4.946;2022-10-26T16:47:34;7.93;;;2.60;;
25091;SDS011;13082;52.374;4.946;2022-10-26T16:50:02;9.40;;;3.83;;
25091;SDS011;13082;52.374;4.946;2022-10-26T16:52:27;3.80;;;2.30;;
25091;SDS011;13082;52.374;4.946;2022-10-26T16:54:53;5.53;;;2.10;;
25091;SDS011;13082;52.374;4.946;2022-10-26T16:57:19;7.80;;;2.47;;
25091;SDS011;13082;52.374;4.946;2022-10-26T16:59:44;4.33;;;1.70;;
25091;SDS011;13082;52.374;4.946;2022-10-26T17:02:12;7.83;;;1.80;;
25091;SDS011;13082;52.374;4.946;2022-10-26T17:04:38;4.13;;;1.50;;
25091;SDS011;13082;52.374;4.946;2022-10-26T17:07:04;5.13;;;1.60;;
25091;SDS011;13082;52.374;4.946;2022-10-26T17:09:29;5.30;;;1.53;;
25091;SDS011;13082;52.374;4.946;2022-10-26T17:11:55;9.23;;;2.57;;
25091;SDS011;13082;52.374;4.946;2022-10-26T17:14:21;5.40;;;1.90;;
25091;SDS011;13082;52.374;4.946;2022-10-26T17:16:46;4.93;;;1.90;;
25091;SDS011;13082;52.374;4.946;2022-10-26T17:19:12;6.00;;;2.50;;